Carr Mill, Alabama
Current Conditions -  °F | °C
As of 7:15 PM on Monday 26 Jan 2015 (Local Time) from KALX Reporting Station
Clear Clear  
Wind Chill: 37°   Ceiling: Unl
Heat Index: 37°   Visibility: 10mi
Dew Point: 29°   Wind: 3mph
Humidity: 76%   Direction: 190°S
Pressure: 29.96"   Gusts: NA
Location:  33.2143°N, 85.8209°W
Report Text: KALX 270115Z AUTO 19003KT 10SM CLR 03/M01 A2996 RMK AO2 T00251014
Loading
Personal Weather Stations






























Interactive Weather Map New forecast layout! Learn more

10-Day Weather Forecast

Advertisements
Track Severe Weather on mobile